Terminal Aerodrome Forecast
Issued by NWS

Home | Current Version | Previous Version | Graphics & Text | Print | Product List | Glossary On
Versions: 1 2 3 4 5 6 7 8 9 10 11 12 13 14 15
000
FTUS43 KICT 241720
TAFHUT
TAF
KHUT 241720Z 2418/2518 29010KT P6SM SKC
     FM241900 26015G22KT P6SM SKC
     FM250000 26011KT P6SM BKN100
     FM250600 30011KT P6SM BKN100
     FM251500 33026G36KT P6SM SCT250=

USA.gov is the U.S. government's official web portal to all federal, state and local government web resources and services.